sensor_id;sensor_type;location;lat;lon;timestamp;P1;durP1;ratioP1;P2;durP2;ratioP2
78718;SDS011;68046;53.334;9.538;2023-11-21T00:00:06;14.35;;;7.50;;
78718;SDS011;68046;53.334;9.538;2023-11-21T00:02:38;21.85;;;8.50;;
78718;SDS011;68046;53.334;9.538;2023-11-21T00:05:03;22.58;;;9.85;;
78718;SDS011;68046;53.334;9.538;2023-11-21T00:07:29;22.05;;;8.80;;
78718;SDS011;68046;53.334;9.538;2023-11-21T00:09:55;22.02;;;7.28;;
78718;SDS011;68046;53.334;9.538;2023-11-21T00:12:20;19.48;;;7.60;;
78718;SDS011;68046;53.334;9.538;2023-11-21T00:14:47;19.80;;;7.55;;
78718;SDS011;68046;53.334;9.538;2023-11-21T00:17:12;14.18;;;6.88;;
78718;SDS011;68046;53.334;9.538;2023-11-21T00:19:38;21.08;;;7.47;;
78718;SDS011;68046;53.334;9.538;2023-11-21T00:22:03;17.52;;;6.93;;
78718;SDS011;68046;53.334;9.538;2023-11-21T00:24:28;23.95;;;7.13;;
78718;SDS011;68046;53.334;9.538;2023-11-21T00:26:54;11.50;;;6.93;;
78718;SDS011;68046;53.334;9.538;2023-11-21T00:29:19;13.38;;;7.72;;
78718;SDS011;68046;53.334;9.538;2023-11-21T00:31:46;20.40;;;8.32;;
78718;SDS011;68046;53.334;9.538;2023-11-21T00:34:12;19.80;;;9.15;;
78718;SDS011;68046;53.334;9.538;2023-11-21T00:36:37;21.15;;;8.80;;
78718;SDS011;68046;53.334;9.538;2023-11-21T00:39:03;13.02;;;8.05;;
78718;SDS011;68046;53.334;9.538;2023-11-21T00:41:29;23.70;;;10.18;;
78718;SDS011;68046;53.334;9.538;2023-11-21T00:43:54;18.98;;;9.52;;
78718;SDS011;68046;53.334;9.538;2023-11-21T00:46:20;17.38;;;9.55;;
78718;SDS011;68046;53.334;9.538;2023-11-21T00:48:49;20.10;;;10.35;;
78718;SDS011;68046;53.334;9.538;2023-11-21T00:51:15;24.35;;;10.85;;
78718;SDS011;68046;53.334;9.538;2023-11-21T00:53:42;25.35;;;10.93;;
78718;SDS011;68046;53.334;9.538;2023-11-21T00:56:07;24.30;;;10.45;;
78718;SDS011;68046;53.334;9.538;2023-11-21T00:58:33;21.48;;;10.18;;
78718;SDS011;68046;53.334;9.538;2023-11-21T01:00:58;21.27;;;10.02;;
78718;SDS011;68046;53.334;9.538;2023-11-21T01:03:24;23.08;;;9.63;;
78718;SDS011;68046;53.334;9.538;2023-11-21T01:05:51;23.38;;;11.15;;
78718;SDS011;68046;53.334;9.538;2023-11-21T01:08:16;26.17;;;10.88;;
78718;SDS011;68046;53.334;9.538;2023-11-21T01:10:42;23.08;;;9.95;;
78718;SDS011;68046;53.334;9.538;2023-11-21T01:13:07;17.13;;;8.40;;
78718;SDS011;68046;53.334;9.538;2023-11-21T01:15:33;23.30;;;10.82;;
78718;SDS011;68046;53.334;9.538;2023-11-21T01:17:59;22.00;;;10.40;;
78718;SDS011;68046;53.334;9.538;2023-11-21T01:20:24;20.60;;;9.40;;
78718;SDS011;68046;53.334;9.538;2023-11-21T01:22:51;24.83;;;9.55;;
78718;SDS011;68046;53.334;9.538;2023-11-21T01:25:16;23.73;;;10.02;;
78718;SDS011;68046;53.334;9.538;2023-11-21T01:27:42;32.05;;;11.57;;
78718;SDS011;68046;53.334;9.538;2023-11-21T01:30:08;26.02;;;11.38;;
78718;SDS011;68046;53.334;9.538;2023-11-21T01:32:34;24.90;;;11.05;;
78718;SDS011;68046;53.334;9.538;2023-11-21T01:34:59;29.33;;;11.25;;
78718;SDS011;68046;53.334;9.538;2023-11-21T01:37:25;26.05;;;11.75;;
78718;SDS011;68046;53.334;9.538;2023-11-21T01:39:52;30.20;;;11.57;;
78718;SDS011;68046;53.334;9.538;2023-11-21T01:42:17;25.75;;;12.07;;
78718;SDS011;68046;53.334;9.538;2023-11-21T01:44:43;24.73;;;11.73;;
78718;SDS011;68046;53.334;9.538;2023-11-21T01:47:08;31.35;;;12.07;;
78718;SDS011;68046;53.334;9.538;2023-11-21T01:49:34;23.00;;;10.73;;
78718;SDS011;68046;53.334;9.538;2023-11-21T01:52:00;31.58;;;13.13;;
78718;SDS011;68046;53.334;9.538;2023-11-21T01:54:27;25.63;;;12.15;;
78718;SDS011;68046;53.334;9.538;2023-11-21T01:56:53;25.67;;;11.55;;
78718;SDS011;68046;53.334;9.538;2023-11-21T01:59:19;24.02;;;11.23;;
78718;SDS011;68046;53.334;9.538;2023-11-21T02:01:46;23.95;;;11.48;;
78718;SDS011;68046;53.334;9.538;2023-11-21T02:04:11;21.35;;;10.77;;
78718;SDS011;68046;53.334;9.538;2023-11-21T02:06:37;24.92;;;11.07;;
78718;SDS011;68046;53.334;9.538;2023-11-21T02:09:03;23.65;;;11.52;;
78718;SDS011;68046;53.334;9.538;2023-11-21T02:11:28;27.17;;;11.27;;
78718;SDS011;68046;53.334;9.538;2023-11-21T02:13:55;26.55;;;12.55;;
78718;SDS011;68046;53.334;9.538;2023-11-21T02:16:24;27.35;;;11.43;;
78718;SDS011;68046;53.334;9.538;2023-11-21T02:18:50;27.23;;;10.70;;
78718;SDS011;68046;53.334;9.538;2023-11-21T02:21:16;18.55;;;8.60;;
78718;SDS011;68046;53.334;9.538;2023-11-21T02:23:43;18.05;;;8.70;;
78718;SDS011;68046;53.334;9.538;2023-11-21T02:26:09;22.70;;;8.70;;
78718;SDS011;68046;53.334;9.538;2023-11-21T02:28:34;17.80;;;7.63;;
78718;SDS011;68046;53.334;9.538;2023-11-21T02:30:59;21.08;;;8.38;;
78718;SDS011;68046;53.334;9.538;2023-11-21T02:33:25;18.88;;;7.78;;
78718;SDS011;68046;53.334;9.538;2023-11-21T02:35:51;16.27;;;6.65;;
78718;SDS011;68046;53.334;9.538;2023-11-21T02:38:16;15.20;;;7.03;;
78718;SDS011;68046;53.334;9.538;2023-11-21T02:40:43;18.42;;;8.07;;
78718;SDS011;68046;53.334;9.538;2023-11-21T02:43:09;18.02;;;7.97;;
78718;SDS011;68046;53.334;9.538;2023-11-21T02:45:34;18.92;;;7.75;;
78718;SDS011;68046;53.334;9.538;2023-11-21T02:48:00;24.73;;;9.38;;
78718;SDS011;68046;53.334;9.538;2023-11-21T02:50:25;17.83;;;7.95;;
78718;SDS011;68046;53.334;9.538;2023-11-21T02:52:51;15.63;;;7.43;;
78718;SDS011;68046;53.334;9.538;2023-11-21T02:55:16;17.08;;;9.00;;
78718;SDS011;68046;53.334;9.538;2023-11-21T02:57:43;21.70;;;10.00;;
78718;SDS011;68046;53.334;9.538;2023-11-21T03:00:09;18.92;;;8.35;;
78718;SDS011;68046;53.334;9.538;2023-11-21T03:02:35;23.08;;;9.63;;
78718;SDS011;68046;53.334;9.538;2023-11-21T03:05:00;18.63;;;8.52;;
78718;SDS011;68046;53.334;9.538;2023-11-21T03:07:26;22.35;;;8.68;;
78718;SDS011;68046;53.334;9.538;2023-11-21T03:09:51;19.95;;;8.38;;
78718;SDS011;68046;53.334;9.538;2023-11-21T03:12:17;17.95;;;8.55;;
78718;SDS011;68046;53.334;9.538;2023-11-21T03:14:43;19.23;;;6.75;;
78718;SDS011;68046;53.334;9.538;2023-11-21T03:17:09;10.02;;;5.63;;
78718;SDS011;68046;53.334;9.538;2023-11-21T03:19:34;10.45;;;5.85;;
78718;SDS011;68046;53.334;9.538;2023-11-21T03:22:00;13.88;;;5.93;;
78718;SDS011;68046;53.334;9.538;2023-11-21T03:24:25;11.27;;;5.00;;
78718;SDS011;68046;53.334;9.538;2023-11-21T03:26:50;17.90;;;5.85;;
78718;SDS011;68046;53.334;9.538;2023-11-21T03:29:17;10.80;;;4.93;;
78718;SDS011;68046;53.334;9.538;2023-11-21T03:31:43;15.82;;;5.57;;
78718;SDS011;68046;53.334;9.538;2023-11-21T03:34:11;12.85;;;5.63;;
78718;SDS011;68046;53.334;9.538;2023-11-21T03:36:39;13.80;;;5.47;;
78718;SDS011;68046;53.334;9.538;2023-11-21T03:39:05;8.77;;;5.00;;
78718;SDS011;68046;53.334;9.538;2023-11-21T03:41:30;10.13;;;5.15;;
78718;SDS011;68046;53.334;9.538;2023-11-21T03:43:56;7.38;;;4.53;;
78718;SDS011;68046;53.334;9.538;2023-11-21T03:46:21;8.88;;;5.45;;
78718;SDS011;68046;53.334;9.538;2023-11-21T03:48:48;10.38;;;4.88;;
78718;SDS011;68046;53.334;9.538;2023-11-21T03:51:14;14.00;;;5.28;;
78718;SDS011;68046;53.334;9.538;2023-11-21T03:53:39;8.95;;;4.78;;
78718;SDS011;68046;53.334;9.538;2023-11-21T03:56:08;13.18;;;5.75;;
78718;SDS011;68046;53.334;9.538;2023-11-21T03:58:34;11.68;;;5.43;;
78718;SDS011;68046;53.334;9.538;2023-11-21T04:00:59;11.45;;;5.10;;
78718;SDS011;68046;53.334;9.538;2023-11-21T04:03:25;11.63;;;5.50;;
78718;SDS011;68046;53.334;9.538;2023-11-21T04:05:51;9.63;;;5.22;;
78718;SDS011;68046;53.334;9.538;2023-11-21T04:08:17;11.15;;;5.13;;
78718;SDS011;68046;53.334;9.538;2023-11-21T04:10:42;9.38;;;4.57;;
78718;SDS011;68046;53.334;9.538;2023-11-21T04:13:08;11.48;;;5.18;;
78718;SDS011;68046;53.334;9.538;2023-11-21T04:15:33;12.35;;;5.80;;
78718;SDS011;68046;53.334;9.538;2023-11-21T04:17:58;10.15;;;5.57;;
78718;SDS011;68046;53.334;9.538;2023-11-21T04:20:24;10.63;;;5.35;;
78718;SDS011;68046;53.334;9.538;2023-11-21T04:22:51;13.95;;;5.95;;
78718;SDS011;68046;53.334;9.538;2023-11-21T04:25:17;9.38;;;5.13;;
78718;SDS011;68046;53.334;9.538;2023-11-21T04:27:43;9.52;;;4.63;;
78718;SDS011;68046;53.334;9.538;2023-11-21T04:30:09;7.50;;;4.18;;
78718;SDS011;68046;53.334;9.538;2023-11-21T04:32:35;10.85;;;4.60;;
78718;SDS011;68046;53.334;9.538;2023-11-21T04:35:01;11.10;;;6.20;;
78718;SDS011;68046;53.334;9.538;2023-11-21T04:37:26;14.63;;;4.45;;
78718;SDS011;68046;53.334;9.538;2023-11-21T04:39:53;9.65;;;4.75;;
78718;SDS011;68046;53.334;9.538;2023-11-21T04:42:19;10.07;;;4.40;;
78718;SDS011;68046;53.334;9.538;2023-11-21T04:44:44;11.32;;;5.47;;
78718;SDS011;68046;53.334;9.538;2023-11-21T04:47:10;9.48;;;4.47;;
78718;SDS011;68046;53.334;9.538;2023-11-21T04:49:35;10.85;;;5.47;;
78718;SDS011;68046;53.334;9.538;2023-11-21T04:52:01;9.68;;;4.55;;
78718;SDS011;68046;53.334;9.538;2023-11-21T04:54:26;11.25;;;5.68;;
78718;SDS011;68046;53.334;9.538;2023-11-21T04:56:53;8.20;;;5.05;;
78718;SDS011;68046;53.334;9.538;2023-11-21T04:59:18;10.93;;;5.28;;
78718;SDS011;68046;53.334;9.538;2023-11-21T05:01:44;9.52;;;4.63;;
78718;SDS011;68046;53.334;9.538;2023-11-21T05:04:09;9.70;;;4.55;;
78718;SDS011;68046;53.334;9.538;2023-11-21T05:06:35;9.38;;;4.57;;
78718;SDS011;68046;53.334;9.538;2023-11-21T05:09:00;9.13;;;4.53;;
78718;SDS011;68046;53.334;9.538;2023-11-21T05:11:26;7.85;;;4.95;;
78718;SDS011;68046;53.334;9.538;2023-11-21T05:13:53;10.93;;;5.32;;
78718;SDS011;68046;53.334;9.538;2023-11-21T05:16:19;11.60;;;5.93;;
78718;SDS011;68046;53.334;9.538;2023-11-21T05:18:44;14.75;;;6.55;;
78718;SDS011;68046;53.334;9.538;2023-11-21T05:21:09;11.15;;;6.25;;
78718;SDS011;68046;53.334;9.538;2023-11-21T05:23:35;11.30;;;6.65;;
78718;SDS011;68046;53.334;9.538;2023-11-21T05:26:00;10.13;;;5.97;;
78718;SDS011;68046;53.334;9.538;2023-11-21T05:28:26;17.13;;;6.85;;
78718;SDS011;68046;53.334;9.538;2023-11-21T05:30:52;11.30;;;6.22;;
78718;SDS011;68046;53.334;9.538;2023-11-21T05:33:18;13.02;;;6.78;;
78718;SDS011;68046;53.334;9.538;2023-11-21T05:35:43;16.15;;;7.20;;
78718;SDS011;68046;53.334;9.538;2023-11-21T05:38:09;12.82;;;6.57;;
78718;SDS011;68046;53.334;9.538;2023-11-21T05:40:34;16.42;;;7.47;;
78718;SDS011;68046;53.334;9.538;2023-11-21T05:43:00;15.10;;;5.95;;
78718;SDS011;68046;53.334;9.538;2023-11-21T05:45:25;13.20;;;6.45;;
78718;SDS011;68046;53.334;9.538;2023-11-21T05:47:52;15.90;;;6.53;;
78718;SDS011;68046;53.334;9.538;2023-11-21T05:50:17;12.45;;;7.03;;
78718;SDS011;68046;53.334;9.538;2023-11-21T05:52:43;16.27;;;6.88;;
78718;SDS011;68046;53.334;9.538;2023-11-21T05:55:09;17.80;;;6.70;;
78718;SDS011;68046;53.334;9.538;2023-11-21T05:57:35;14.45;;;7.03;;
78718;SDS011;68046;53.334;9.538;2023-11-21T06:00:02;13.65;;;6.50;;
78718;SDS011;68046;53.334;9.538;2023-11-21T06:02:30;14.15;;;6.90;;
78718;SDS011;68046;53.334;9.538;2023-11-21T06:04:57;12.98;;;6.05;;
78718;SDS011;68046;53.334;9.538;2023-11-21T06:07:22;13.05;;;6.63;;
78718;SDS011;68046;53.334;9.538;2023-11-21T06:09:47;11.55;;;6.43;;
78718;SDS011;68046;53.334;9.538;2023-11-21T06:12:13;16.55;;;7.57;;
78718;SDS011;68046;53.334;9.538;2023-11-21T06:14:38;16.23;;;7.22;;
78718;SDS011;68046;53.334;9.538;2023-11-21T06:17:04;18.48;;;7.43;;
78718;SDS011;68046;53.334;9.538;2023-11-21T06:19:29;17.52;;;7.55;;
78718;SDS011;68046;53.334;9.538;2023-11-21T06:21:56;14.98;;;7.50;;
78718;SDS011;68046;53.334;9.538;2023-11-21T06:24:21;18.75;;;7.70;;
78718;SDS011;68046;53.334;9.538;2023-11-21T06:26:47;16.15;;;7.72;;
78718;SDS011;68046;53.334;9.538;2023-11-21T06:29:12;15.52;;;6.85;;
78718;SDS011;68046;53.334;9.538;2023-11-21T06:31:37;12.25;;;7.03;;
78718;SDS011;68046;53.334;9.538;2023-11-21T06:34:03;15.15;;;7.93;;
78718;SDS011;68046;53.334;9.538;2023-11-21T06:36:28;14.38;;;7.50;;
78718;SDS011;68046;53.334;9.538;2023-11-21T06:38:55;13.52;;;6.82;;
78718;SDS011;68046;53.334;9.538;2023-11-21T06:41:21;12.95;;;6.65;;
78718;SDS011;68046;53.334;9.538;2023-11-21T06:43:46;13.15;;;6.40;;
78718;SDS011;68046;53.334;9.538;2023-11-21T06:46:11;11.95;;;6.20;;
78718;SDS011;68046;53.334;9.538;2023-11-21T06:48:37;19.33;;;7.30;;
78718;SDS011;68046;53.334;9.538;2023-11-21T06:51:03;13.88;;;7.00;;
78718;SDS011;68046;53.334;9.538;2023-11-21T06:53:28;11.98;;;6.55;;
78718;SDS011;68046;53.334;9.538;2023-11-21T06:55:55;19.80;;;7.40;;
78718;SDS011;68046;53.334;9.538;2023-11-21T06:58:21;15.68;;;7.38;;
78718;SDS011;68046;53.334;9.538;2023-11-21T07:00:46;13.07;;;6.25;;
78718;SDS011;68046;53.334;9.538;2023-11-21T07:03:11;17.25;;;7.53;;
78718;SDS011;68046;53.334;9.538;2023-11-21T07:05:37;12.80;;;6.25;;
78718;SDS011;68046;53.334;9.538;2023-11-21T07:08:02;19.35;;;7.53;;
78718;SDS011;68046;53.334;9.538;2023-11-21T07:10:28;15.68;;;6.20;;
78718;SDS011;68046;53.334;9.538;2023-11-21T07:12:55;11.35;;;6.05;;
78718;SDS011;68046;53.334;9.538;2023-11-21T07:15:20;13.90;;;7.18;;
78718;SDS011;68046;53.334;9.538;2023-11-21T07:17:45;16.30;;;6.90;;
78718;SDS011;68046;53.334;9.538;2023-11-21T07:20:11;15.20;;;6.85;;
78718;SDS011;68046;53.334;9.538;2023-11-21T07:22:37;12.15;;;6.78;;
78718;SDS011;68046;53.334;9.538;2023-11-21T07:25:02;15.38;;;7.10;;
78718;SDS011;68046;53.334;9.538;2023-11-21T07:27:28;12.85;;;6.78;;
78718;SDS011;68046;53.334;9.538;2023-11-21T07:29:55;17.63;;;7.57;;
78718;SDS011;68046;53.334;9.538;2023-11-21T07:32:20;16.90;;;7.18;;
78718;SDS011;68046;53.334;9.538;2023-11-21T07:34:46;16.38;;;8.00;;
78718;SDS011;68046;53.334;9.538;2023-11-21T07:37:11;17.23;;;7.13;;
78718;SDS011;68046;53.334;9.538;2023-11-21T07:39:36;10.88;;;5.50;;
78718;SDS011;68046;53.334;9.538;2023-11-21T07:42:02;12.43;;;6.28;;
78718;SDS011;68046;53.334;9.538;2023-11-21T07:44:28;13.50;;;6.47;;
78718;SDS011;68046;53.334;9.538;2023-11-21T07:46:55;16.77;;;6.80;;
78718;SDS011;68046;53.334;9.538;2023-11-21T07:49:20;13.20;;;6.95;;
78718;SDS011;68046;53.334;9.538;2023-11-21T07:51:46;14.40;;;7.00;;
78718;SDS011;68046;53.334;9.538;2023-11-21T07:54:11;15.40;;;6.63;;
78718;SDS011;68046;53.334;9.538;2023-11-21T07:56:37;13.93;;;6.80;;
78718;SDS011;68046;53.334;9.538;2023-11-21T07:59:02;15.93;;;7.30;;
78718;SDS011;68046;53.334;9.538;2023-11-21T08:01:27;17.08;;;6.93;;
78718;SDS011;68046;53.334;9.538;2023-11-21T08:03:54;17.05;;;8.73;;
78718;SDS011;68046;53.334;9.538;2023-11-21T08:06:20;13.93;;;7.72;;
78718;SDS011;68046;53.334;9.538;2023-11-21T08:08:45;16.13;;;7.88;;
78718;SDS011;68046;53.334;9.538;2023-11-21T08:11:11;15.60;;;7.03;;
78718;SDS011;68046;53.334;9.538;2023-11-21T08:13:36;12.80;;;6.32;;
78718;SDS011;68046;53.334;9.538;2023-11-21T08:16:01;10.98;;;6.22;;
78718;SDS011;68046;53.334;9.538;2023-11-21T08:18:27;13.00;;;6.35;;
78718;SDS011;68046;53.334;9.538;2023-11-21T08:20:55;13.80;;;7.43;;
78718;SDS011;68046;53.334;9.538;2023-11-21T08:23:20;14.68;;;6.90;;
78718;SDS011;68046;53.334;9.538;2023-11-21T08:25:46;15.50;;;8.13;;
78718;SDS011;68046;53.334;9.538;2023-11-21T08:28:12;15.65;;;6.53;;
78718;SDS011;68046;53.334;9.538;2023-11-21T08:30:37;17.38;;;6.40;;
78718;SDS011;68046;53.334;9.538;2023-11-21T08:33:03;12.73;;;6.38;;
78718;SDS011;68046;53.334;9.538;2023-11-21T08:35:28;14.52;;;6.30;;
78718;SDS011;68046;53.334;9.538;2023-11-21T08:37:55;15.98;;;7.75;;
78718;SDS011;68046;53.334;9.538;2023-11-21T08:40:21;11.77;;;6.25;;
78718;SDS011;68046;53.334;9.538;2023-11-21T08:42:46;11.60;;;6.72;;
78718;SDS011;68046;53.334;9.538;2023-11-21T08:45:12;18.38;;;7.28;;
78718;SDS011;68046;53.334;9.538;2023-11-21T08:47:38;13.18;;;6.93;;
78718;SDS011;68046;53.334;9.538;2023-11-21T08:50:03;13.38;;;5.82;;
78718;SDS011;68046;53.334;9.538;2023-11-21T08:52:29;14.40;;;6.72;;
78718;SDS011;68046;53.334;9.538;2023-11-21T08:54:56;20.65;;;6.93;;
78718;SDS011;68046;53.334;9.538;2023-11-21T08:57:21;12.00;;;6.40;;
78718;SDS011;68046;53.334;9.538;2023-11-21T08:59:47;16.10;;;6.97;;
78718;SDS011;68046;53.334;9.538;2023-11-21T09:02:12;14.50;;;7.18;;
78718;SDS011;68046;53.334;9.538;2023-11-21T09:04:38;10.43;;;5.75;;
78718;SDS011;68046;53.334;9.538;2023-11-21T09:07:03;13.88;;;6.57;;
78718;SDS011;68046;53.334;9.538;2023-11-21T09:09:29;14.18;;;7.20;;
78718;SDS011;68046;53.334;9.538;2023-11-21T09:11:55;13.80;;;7.43;;
78718;SDS011;68046;53.334;9.538;2023-11-21T09:14:21;13.65;;;7.45;;
78718;SDS011;68046;53.334;9.538;2023-11-21T09:16:46;12.50;;;6.93;;
78718;SDS011;68046;53.334;9.538;2023-11-21T09:19:12;17.95;;;7.70;;
78718;SDS011;68046;53.334;9.538;2023-11-21T09:21:37;11.52;;;7.15;;
78718;SDS011;68046;53.334;9.538;2023-11-21T09:24:03;15.63;;;7.13;;
78718;SDS011;68046;53.334;9.538;2023-11-21T09:26:29;12.70;;;6.47;;
78718;SDS011;68046;53.334;9.538;2023-11-21T09:28:56;17.73;;;7.63;;
78718;SDS011;68046;53.334;9.538;2023-11-21T09:31:21;11.73;;;6.68;;
78718;SDS011;68046;53.334;9.538;2023-11-21T09:33:47;14.27;;;7.88;;
78718;SDS011;68046;53.334;9.538;2023-11-21T09:36:12;18.42;;;8.95;;
78718;SDS011;68046;53.334;9.538;2023-11-21T09:38:38;13.52;;;6.72;;
78718;SDS011;68046;53.334;9.538;2023-11-21T09:41:03;14.50;;;7.22;;
78718;SDS011;68046;53.334;9.538;2023-11-21T09:43:31;14.00;;;8.02;;
78718;SDS011;68046;53.334;9.538;2023-11-21T09:45:59;13.43;;;6.97;;
78718;SDS011;68046;53.334;9.538;2023-11-21T09:48:26;13.90;;;7.20;;
78718;SDS011;68046;53.334;9.538;2023-11-21T09:50:54;15.60;;;8.23;;
78718;SDS011;68046;53.334;9.538;2023-11-21T09:53:19;11.50;;;6.05;;
78718;SDS011;68046;53.334;9.538;2023-11-21T09:55:47;11.65;;;6.65;;
78718;SDS011;68046;53.334;9.538;2023-11-21T09:58:13;13.40;;;6.57;;
78718;SDS011;68046;53.334;9.538;2023-11-21T10:00:40;13.45;;;6.72;;
78718;SDS011;68046;53.334;9.538;2023-11-21T10:03:07;10.70;;;6.25;;
78718;SDS011;68046;53.334;9.538;2023-11-21T10:05:33;11.40;;;5.75;;
78718;SDS011;68046;53.334;9.538;2023-11-21T10:07:59;12.55;;;5.60;;
78718;SDS011;68046;53.334;9.538;2023-11-21T10:10:25;10.32;;;5.72;;
78718;SDS011;68046;53.334;9.538;2023-11-21T10:12:53;11.85;;;5.93;;
78718;SDS011;68046;53.334;9.538;2023-11-21T10:15:21;13.02;;;6.70;;
78718;SDS011;68046;53.334;9.538;2023-11-21T10:17:48;12.55;;;5.93;;
78718;SDS011;68046;53.334;9.538;2023-11-21T10:20:16;10.82;;;5.45;;
78718;SDS011;68046;53.334;9.538;2023-11-21T10:22:42;10.30;;;5.65;;
78718;SDS011;68046;53.334;9.538;2023-11-21T10:25:08;9.65;;;5.40;;
78718;SDS011;68046;53.334;9.538;2023-11-21T10:27:34;11.07;;;5.47;;
78718;SDS011;68046;53.334;9.538;2023-11-21T10:30:00;11.27;;;5.93;;
78718;SDS011;68046;53.334;9.538;2023-11-21T10:32:27;12.70;;;6.05;;
78718;SDS011;68046;53.334;9.538;2023-11-21T10:34:56;11.55;;;5.35;;
78718;SDS011;68046;53.334;9.538;2023-11-21T10:37:23;7.85;;;4.80;;
78718;SDS011;68046;53.334;9.538;2023-11-21T10:39:48;12.68;;;6.00;;
78718;SDS011;68046;53.334;9.538;2023-11-21T10:42:14;9.13;;;4.72;;
78718;SDS011;68046;53.334;9.538;2023-11-21T10:44:41;9.25;;;4.63;;
78718;SDS011;68046;53.334;9.538;2023-11-21T10:47:08;11.07;;;5.85;;
78718;SDS011;68046;53.334;9.538;2023-11-21T10:49:33;10.98;;;5.18;;
78718;SDS011;68046;53.334;9.538;2023-11-21T10:51:59;9.65;;;5.38;;
78718;SDS011;68046;53.334;9.538;2023-11-21T10:54:26;9.63;;;5.00;;
78718;SDS011;68046;53.334;9.538;2023-11-21T10:56:53;9.50;;;5.38;;
78718;SDS011;68046;53.334;9.538;2023-11-21T10:59:26;11.77;;;5.43;;
78718;SDS011;68046;53.334;9.538;2023-11-21T11:01:54;12.40;;;6.13;;
78718;SDS011;68046;53.334;9.538;2023-11-21T11:04:22;9.05;;;5.10;;
78718;SDS011;68046;53.334;9.538;2023-11-21T11:06:51;13.63;;;6.20;;
78718;SDS011;68046;53.334;9.538;2023-11-21T11:09:20;11.38;;;5.22;;
78718;SDS011;68046;53.334;9.538;2023-11-21T11:11:46;10.73;;;5.13;;
78718;SDS011;68046;53.334;9.538;2023-11-21T11:14:13;9.15;;;5.00;;
78718;SDS011;68046;53.334;9.538;2023-11-21T11:16:39;8.65;;;4.72;;
78718;SDS011;68046;53.334;9.538;2023-11-21T11:19:05;10.50;;;5.57;;
78718;SDS011;68046;53.334;9.538;2023-11-21T11:21:33;8.40;;;4.30;;
78718;SDS011;68046;53.334;9.538;2023-11-21T11:24:13;9.90;;;4.38;;
78718;SDS011;68046;53.334;9.538;2023-11-21T11:29:23;8.32;;;3.90;;
78718;SDS011;68046;53.334;9.538;2023-11-21T11:32:02;6.07;;;3.72;;
78718;SDS011;68046;53.334;9.538;2023-11-21T11:34:35;7.45;;;3.60;;
78718;SDS011;68046;53.334;9.538;2023-11-21T11:37:05;7.97;;;4.05;;
78718;SDS011;68046;53.334;9.538;2023-11-21T11:39:34;8.32;;;3.85;;
78718;SDS011;68046;53.334;9.538;2023-11-21T11:42:03;6.72;;;3.28;;
78718;SDS011;68046;53.334;9.538;2023-11-21T11:44:46;5.43;;;3.20;;
78718;SDS011;68046;53.334;9.538;2023-11-21T11:47:13;7.80;;;3.80;;
78718;SDS011;68046;53.334;9.538;2023-11-21T11:49:38;6.60;;;3.63;;
78718;SDS011;68046;53.334;9.538;2023-11-21T11:52:31;6.82;;;3.22;;
78718;SDS011;68046;53.334;9.538;2023-11-21T11:54:58;4.82;;;3.13;;
78718;SDS011;68046;53.334;9.538;2023-11-21T11:57:25;8.35;;;3.85;;
78718;SDS011;68046;53.334;9.538;2023-11-21T12:02:32;6.53;;;3.13;;
78718;SDS011;68046;53.334;9.538;2023-11-21T12:04:59;6.63;;;3.47;;
78718;SDS011;68046;53.334;9.538;2023-11-21T12:07:24;4.88;;;2.78;;
78718;SDS011;68046;53.334;9.538;2023-11-21T12:10:04;4.82;;;2.75;;
78718;SDS011;68046;53.334;9.538;2023-11-21T12:12:31;5.22;;;2.83;;
78718;SDS011;68046;53.334;9.538;2023-11-21T12:14:56;5.50;;;3.20;;
78718;SDS011;68046;53.334;9.538;2023-11-21T12:17:22;7.78;;;3.28;;
78718;SDS011;68046;53.334;9.538;2023-11-21T12:19:47;6.13;;;3.30;;
78718;SDS011;68046;53.334;9.538;2023-11-21T12:22:13;5.90;;;3.30;;
78718;SDS011;68046;53.334;9.538;2023-11-21T12:24:39;5.50;;;3.00;;
78718;SDS011;68046;53.334;9.538;2023-11-21T12:27:05;5.10;;;2.97;;
78718;SDS011;68046;53.334;9.538;2023-11-21T12:29:31;6.22;;;3.47;;
78718;SDS011;68046;53.334;9.538;2023-11-21T12:31:57;7.30;;;3.42;;
78718;SDS011;68046;53.334;9.538;2023-11-21T12:34:22;8.52;;;3.45;;
78718;SDS011;68046;53.334;9.538;2023-11-21T12:36:48;10.18;;;3.50;;
78718;SDS011;68046;53.334;9.538;2023-11-21T12:39:13;4.60;;;3.00;;
78718;SDS011;68046;53.334;9.538;2023-11-21T12:41:39;6.57;;;3.45;;
78718;SDS011;68046;53.334;9.538;2023-11-21T12:44:08;5.57;;;3.25;;
78718;SDS011;68046;53.334;9.538;2023-11-21T12:46:36;5.38;;;3.08;;
78718;SDS011;68046;53.334;9.538;2023-11-21T12:49:06;7.13;;;3.20;;
78718;SDS011;68046;53.334;9.538;2023-11-21T12:51:31;7.13;;;3.03;;
78718;SDS011;68046;53.334;9.538;2023-11-21T12:53:58;4.97;;;3.00;;
78718;SDS011;68046;53.334;9.538;2023-11-21T12:56:24;6.13;;;3.13;;
78718;SDS011;68046;53.334;9.538;2023-11-21T12:58:49;4.65;;;2.67;;
78718;SDS011;68046;53.334;9.538;2023-11-21T13:01:15;6.45;;;2.92;;
78718;SDS011;68046;53.334;9.538;2023-11-21T13:03:43;4.00;;;2.40;;
78718;SDS011;68046;53.334;9.538;2023-11-21T13:06:08;6.30;;;2.72;;
78718;SDS011;68046;53.334;9.538;2023-11-21T13:08:34;5.70;;;3.40;;
78718;SDS011;68046;53.334;9.538;2023-11-21T13:10:59;6.28;;;2.75;;
78718;SDS011;68046;53.334;9.538;2023-11-21T13:13:25;6.38;;;2.95;;
78718;SDS011;68046;53.334;9.538;2023-11-21T13:15:54;4.97;;;2.70;;
78718;SDS011;68046;53.334;9.538;2023-11-21T13:18:20;4.43;;;2.63;;
78718;SDS011;68046;53.334;9.538;2023-11-21T13:20:47;6.65;;;2.70;;
78718;SDS011;68046;53.334;9.538;2023-11-21T13:23:12;9.50;;;2.92;;
78718;SDS011;68046;53.334;9.538;2023-11-21T13:25:38;6.97;;;3.30;;
78718;SDS011;68046;53.334;9.538;2023-11-21T13:28:03;5.75;;;2.92;;
78718;SDS011;68046;53.334;9.538;2023-11-21T13:30:30;6.40;;;2.95;;
78718;SDS011;68046;53.334;9.538;2023-11-21T13:32:55;3.45;;;2.30;;
78718;SDS011;68046;53.334;9.538;2023-11-21T13:35:21;6.13;;;2.80;;
78718;SDS011;68046;53.334;9.538;2023-11-21T13:37:48;6.88;;;2.97;;
78718;SDS011;68046;53.334;9.538;2023-11-21T13:40:15;4.35;;;2.97;;
78718;SDS011;68046;53.334;9.538;2023-11-21T13:42:40;7.15;;;3.22;;
78718;SDS011;68046;53.334;9.538;2023-11-21T13:45:06;6.10;;;2.72;;
78718;SDS011;68046;53.334;9.538;2023-11-21T13:47:32;3.78;;;2.58;;
78718;SDS011;68046;53.334;9.538;2023-11-21T13:49:57;5.25;;;2.67;;
78718;SDS011;68046;53.334;9.538;2023-11-21T13:52:22;7.43;;;3.00;;
78718;SDS011;68046;53.334;9.538;2023-11-21T13:54:49;5.10;;;2.88;;
78718;SDS011;68046;53.334;9.538;2023-11-21T13:57:14;5.90;;;3.13;;
78718;SDS011;68046;53.334;9.538;2023-11-21T13:59:40;9.90;;;3.20;;
78718;SDS011;68046;53.334;9.538;2023-11-21T14:02:05;6.68;;;3.15;;
78718;SDS011;68046;53.334;9.538;2023-11-21T14:04:31;3.65;;;2.53;;
78718;SDS011;68046;53.334;9.538;2023-11-21T14:06:56;4.22;;;2.67;;
78718;SDS011;68046;53.334;9.538;2023-11-21T14:09:22;6.80;;;3.30;;
78718;SDS011;68046;53.334;9.538;2023-11-21T14:11:50;7.75;;;3.00;;
78718;SDS011;68046;53.334;9.538;2023-11-21T14:14:16;7.80;;;3.58;;
78718;SDS011;68046;53.334;9.538;2023-11-21T14:16:41;5.30;;;2.97;;
78718;SDS011;68046;53.334;9.538;2023-11-21T14:19:07;6.00;;;2.65;;
78718;SDS011;68046;53.334;9.538;2023-11-21T14:21:32;5.63;;;3.10;;
78718;SDS011;68046;53.334;9.538;2023-11-21T14:23:57;5.35;;;3.05;;
78718;SDS011;68046;53.334;9.538;2023-11-21T14:26:23;8.40;;;2.92;;
78718;SDS011;68046;53.334;9.538;2023-11-21T14:28:50;6.70;;;3.00;;
78718;SDS011;68046;53.334;9.538;2023-11-21T14:31:15;5.07;;;2.70;;
78718;SDS011;68046;53.334;9.538;2023-11-21T14:33:41;5.95;;;3.03;;
78718;SDS011;68046;53.334;9.538;2023-11-21T14:36:07;4.65;;;2.72;;